sensor_id;sensor_type;location;lat;lon;timestamp;temperature;humidity
34829;DHT22;21042;47.620;12.188;2023-12-20T00:01:58;0.40;99.90
34829;DHT22;21042;47.620;12.188;2023-12-20T00:04:26;0.40;99.90
34829;DHT22;21042;47.620;12.188;2023-12-20T00:06:52;0.40;99.90
34829;DHT22;21042;47.620;12.188;2023-12-20T00:09:19;0.40;99.90
34829;DHT22;21042;47.620;12.188;2023-12-20T00:11:46;0.40;99.90
34829;DHT22;21042;47.620;12.188;2023-12-20T00:14:13;0.40;99.90
34829;DHT22;21042;47.620;12.188;2023-12-20T00:16:39;0.40;99.90
34829;DHT22;21042;47.620;12.188;2023-12-20T00:19:06;0.30;99.90
34829;DHT22;21042;47.620;12.188;2023-12-20T00:21:34;0.30;99.90
34829;DHT22;21042;47.620;12.188;2023-12-20T00:24:01;0.30;99.90
34829;DHT22;21042;47.620;12.188;2023-12-20T00:26:28;0.30;99.90
34829;DHT22;21042;47.620;12.188;2023-12-20T00:28:55;0.20;99.90
34829;DHT22;21042;47.620;12.188;2023-12-20T00:31:22;0.10;99.90
34829;DHT22;21042;47.620;12.188;2023-12-20T00:33:49;0.10;99.90
34829;DHT22;21042;47.620;12.188;2023-12-20T00:36:16;0.10;99.90
34829;DHT22;21042;47.620;12.188;2023-12-20T00:38:42;0.20;99.90
34829;DHT22;21042;47.620;12.188;2023-12-20T00:41:09;0.30;99.90
34829;DHT22;21042;47.620;12.188;2023-12-20T00:43:36;0.30;99.90
34829;DHT22;21042;47.620;12.188;2023-12-20T00:46:03;0.40;99.90
34829;DHT22;21042;47.620;12.188;2023-12-20T00:48:30;0.40;99.90
34829;DHT22;21042;47.620;12.188;2023-12-20T00:50:58;0.40;99.90
34829;DHT22;21042;47.620;12.188;2023-12-20T00:53:24;0.50;99.90
34829;DHT22;21042;47.620;12.188;2023-12-20T00:55:51;0.50;99.90
34829;DHT22;21042;47.620;12.188;2023-12-20T00:58:18;0.60;99.90
34829;DHT22;21042;47.620;12.188;2023-12-20T01:00:44;0.60;99.90
34829;DHT22;21042;47.620;12.188;2023-12-20T01:03:12;0.60;99.90
34829;DHT22;21042;47.620;12.188;2023-12-20T01:05:39;0.50;99.90
34829;DHT22;21042;47.620;12.188;2023-12-20T01:08:06;0.30;99.90
34829;DHT22;21042;47.620;12.188;2023-12-20T01:10:33;0.30;99.90
34829;DHT22;21042;47.620;12.188;2023-12-20T01:12:59;0.30;99.90
34829;DHT22;21042;47.620;12.188;2023-12-20T01:15:26;0.20;99.90
34829;DHT22;21042;47.620;12.188;2023-12-20T01:17:53;0.10;99.90
34829;DHT22;21042;47.620;12.188;2023-12-20T01:20:20;0.00;99.90
34829;DHT22;21042;47.620;12.188;2023-12-20T01:22:47;0.10;99.90
34829;DHT22;21042;47.620;12.188;2023-12-20T01:25:14;0.10;99.90
34829;DHT22;21042;47.620;12.188;2023-12-20T01:27:40;0.10;99.90
34829;DHT22;21042;47.620;12.188;2023-12-20T01:30:08;0.10;99.90
34829;DHT22;21042;47.620;12.188;2023-12-20T01:32:35;0.10;99.90
34829;DHT22;21042;47.620;12.188;2023-12-20T01:35:02;0.00;99.90
34829;DHT22;21042;47.620;12.188;2023-12-20T01:37:29;-0.10;99.90
34829;DHT22;21042;47.620;12.188;2023-12-20T01:39:56;-0.10;99.90
34829;DHT22;21042;47.620;12.188;2023-12-20T01:42:23;-0.10;99.90
34829;DHT22;21042;47.620;12.188;2023-12-20T01:44:50;-0.10;99.90
34829;DHT22;21042;47.620;12.188;2023-12-20T01:47:17;-0.10;99.90
34829;DHT22;21042;47.620;12.188;2023-12-20T01:49:43;0.00;99.90
34829;DHT22;21042;47.620;12.188;2023-12-20T01:52:10;0.10;99.90
34829;DHT22;21042;47.620;12.188;2023-12-20T01:54:40;0.10;99.90
34829;DHT22;21042;47.620;12.188;2023-12-20T01:57:08;0.10;99.90
34829;DHT22;21042;47.620;12.188;2023-12-20T01:59:39;0.20;99.90
34829;DHT22;21042;47.620;12.188;2023-12-20T02:02:07;0.20;99.90
34829;DHT22;21042;47.620;12.188;2023-12-20T02:04:35;0.20;99.90
34829;DHT22;21042;47.620;12.188;2023-12-20T02:07:02;0.20;99.90
34829;DHT22;21042;47.620;12.188;2023-12-20T02:09:29;0.30;99.90
34829;DHT22;21042;47.620;12.188;2023-12-20T02:11:56;0.30;99.90
34829;DHT22;21042;47.620;12.188;2023-12-20T02:14:23;0.20;99.90
34829;DHT22;21042;47.620;12.188;2023-12-20T02:16:49;0.00;99.90
34829;DHT22;21042;47.620;12.188;2023-12-20T02:19:17;0.00;99.90
34829;DHT22;21042;47.620;12.188;2023-12-20T02:21:45;0.00;99.90
34829;DHT22;21042;47.620;12.188;2023-12-20T02:24:12;-0.10;99.90
34829;DHT22;21042;47.620;12.188;2023-12-20T02:26:39;-0.10;99.90
34829;DHT22;21042;47.620;12.188;2023-12-20T02:29:08;-0.10;99.90
34829;DHT22;21042;47.620;12.188;2023-12-20T02:31:35;-0.20;99.90
34829;DHT22;21042;47.620;12.188;2023-12-20T02:34:02;-0.20;99.90
34829;DHT22;21042;47.620;12.188;2023-12-20T02:36:29;-0.20;99.90
34829;DHT22;21042;47.620;12.188;2023-12-20T02:38:56;-0.20;99.90
34829;DHT22;21042;47.620;12.188;2023-12-20T02:41:22;-0.40;99.90
34829;DHT22;21042;47.620;12.188;2023-12-20T02:43:49;-0.30;99.90
34829;DHT22;21042;47.620;12.188;2023-12-20T02:46:16;-0.20;99.90
34829;DHT22;21042;47.620;12.188;2023-12-20T02:48:44;-0.20;99.90
34829;DHT22;21042;47.620;12.188;2023-12-20T02:51:10;-0.10;99.90
34829;DHT22;21042;47.620;12.188;2023-12-20T02:53:37;0.00;99.90
34829;DHT22;21042;47.620;12.188;2023-12-20T02:56:04;0.00;99.90
34829;DHT22;21042;47.620;12.188;2023-12-20T02:58:31;0.10;99.90
34829;DHT22;21042;47.620;12.188;2023-12-20T03:00:58;0.10;99.90
34829;DHT22;21042;47.620;12.188;2023-12-20T03:03:25;0.20;99.90
34829;DHT22;21042;47.620;12.188;2023-12-20T03:05:51;0.30;99.90
34829;DHT22;21042;47.620;12.188;2023-12-20T03:08:18;0.40;99.90
34829;DHT22;21042;47.620;12.188;2023-12-20T03:10:45;0.40;99.90
34829;DHT22;21042;47.620;12.188;2023-12-20T03:13:12;0.50;99.90
34829;DHT22;21042;47.620;12.188;2023-12-20T03:15:38;0.50;99.90
34829;DHT22;21042;47.620;12.188;2023-12-20T03:18:05;0.50;99.90
34829;DHT22;21042;47.620;12.188;2023-12-20T03:20:32;0.60;99.90
34829;DHT22;21042;47.620;12.188;2023-12-20T03:23:02;0.70;99.90
34829;DHT22;21042;47.620;12.188;2023-12-20T03:25:29;0.80;99.90
34829;DHT22;21042;47.620;12.188;2023-12-20T03:27:56;0.80;99.90
34829;DHT22;21042;47.620;12.188;2023-12-20T03:30:23;0.90;99.90
34829;DHT22;21042;47.620;12.188;2023-12-20T03:32:50;0.90;99.90
34829;DHT22;21042;47.620;12.188;2023-12-20T03:35:17;0.90;99.90
34829;DHT22;21042;47.620;12.188;2023-12-20T03:37:43;0.90;99.90
34829;DHT22;21042;47.620;12.188;2023-12-20T03:40:10;0.70;99.90
34829;DHT22;21042;47.620;12.188;2023-12-20T03:42:37;0.60;99.90
34829;DHT22;21042;47.620;12.188;2023-12-20T03:45:05;0.60;99.90
34829;DHT22;21042;47.620;12.188;2023-12-20T03:47:31;0.60;99.90
34829;DHT22;21042;47.620;12.188;2023-12-20T03:49:58;0.70;99.90
34829;DHT22;21042;47.620;12.188;2023-12-20T03:52:25;0.70;99.90
34829;DHT22;21042;47.620;12.188;2023-12-20T03:54:52;0.80;99.90
34829;DHT22;21042;47.620;12.188;2023-12-20T03:57:19;1.00;99.90
34829;DHT22;21042;47.620;12.188;2023-12-20T03:59:45;1.00;99.90
34829;DHT22;21042;47.620;12.188;2023-12-20T04:02:13;1.10;99.90
34829;DHT22;21042;47.620;12.188;2023-12-20T04:04:40;1.20;99.90
34829;DHT22;21042;47.620;12.188;2023-12-20T04:07:07;1.20;99.90
34829;DHT22;21042;47.620;12.188;2023-12-20T04:09:34;1.20;99.90
34829;DHT22;21042;47.620;12.188;2023-12-20T04:12:01;1.20;99.90
34829;DHT22;21042;47.620;12.188;2023-12-20T04:14:27;1.10;99.90
34829;DHT22;21042;47.620;12.188;2023-12-20T04:16:54;1.10;99.90
34829;DHT22;21042;47.620;12.188;2023-12-20T04:19:21;1.00;99.90
34829;DHT22;21042;47.620;12.188;2023-12-20T04:21:48;0.90;99.90
34829;DHT22;21042;47.620;12.188;2023-12-20T04:24:15;1.00;99.90
34829;DHT22;21042;47.620;12.188;2023-12-20T04:26:42;1.00;99.90
34829;DHT22;21042;47.620;12.188;2023-12-20T04:29:08;1.00;99.90
34829;DHT22;21042;47.620;12.188;2023-12-20T04:31:35;1.00;99.90
34829;DHT22;21042;47.620;12.188;2023-12-20T04:34:02;0.90;99.90
34829;DHT22;21042;47.620;12.188;2023-12-20T04:36:29;0.80;99.90
34829;DHT22;21042;47.620;12.188;2023-12-20T04:38:56;0.80;99.90
34829;DHT22;21042;47.620;12.188;2023-12-20T04:41:23;0.70;99.90
34829;DHT22;21042;47.620;12.188;2023-12-20T04:43:50;0.70;99.90
34829;DHT22;21042;47.620;12.188;2023-12-20T04:46:16;0.80;99.90
34829;DHT22;21042;47.620;12.188;2023-12-20T04:48:43;0.70;99.90
34829;DHT22;21042;47.620;12.188;2023-12-20T04:51:10;0.70;99.90
34829;DHT22;21042;47.620;12.188;2023-12-20T04:53:37;0.70;99.90
34829;DHT22;21042;47.620;12.188;2023-12-20T04:56:04;0.70;99.90
34829;DHT22;21042;47.620;12.188;2023-12-20T04:58:31;0.80;99.90
34829;DHT22;21042;47.620;12.188;2023-12-20T05:00:58;0.90;99.90
34829;DHT22;21042;47.620;12.188;2023-12-20T05:03:25;0.90;99.90
34829;DHT22;21042;47.620;12.188;2023-12-20T05:05:52;0.90;99.90
34829;DHT22;21042;47.620;12.188;2023-12-20T05:08:18;0.90;99.90
34829;DHT22;21042;47.620;12.188;2023-12-20T05:10:46;1.00;99.90
34829;DHT22;21042;47.620;12.188;2023-12-20T05:13:13;1.00;99.90
34829;DHT22;21042;47.620;12.188;2023-12-20T05:15:40;1.00;99.90
34829;DHT22;21042;47.620;12.188;2023-12-20T05:18:06;0.90;99.90
34829;DHT22;21042;47.620;12.188;2023-12-20T05:20:33;0.90;99.90
34829;DHT22;21042;47.620;12.188;2023-12-20T05:23:00;0.80;99.90
34829;DHT22;21042;47.620;12.188;2023-12-20T05:25:27;0.90;99.90
34829;DHT22;21042;47.620;12.188;2023-12-20T05:27:54;0.90;99.90
34829;DHT22;21042;47.620;12.188;2023-12-20T05:30:21;0.90;99.90
34829;DHT22;21042;47.620;12.188;2023-12-20T05:32:47;1.00;99.90
34829;DHT22;21042;47.620;12.188;2023-12-20T05:35:14;1.00;99.90
34829;DHT22;21042;47.620;12.188;2023-12-20T05:37:42;1.10;99.90
34829;DHT22;21042;47.620;12.188;2023-12-20T05:40:09;1.10;99.90
34829;DHT22;21042;47.620;12.188;2023-12-20T05:42:37;1.00;99.90
34829;DHT22;21042;47.620;12.188;2023-12-20T05:45:07;1.00;99.90
34829;DHT22;21042;47.620;12.188;2023-12-20T05:47:34;1.00;99.90
34829;DHT22;21042;47.620;12.188;2023-12-20T05:50:01;1.00;99.90
34829;DHT22;21042;47.620;12.188;2023-12-20T05:52:27;1.00;99.90
34829;DHT22;21042;47.620;12.188;2023-12-20T05:54:54;1.10;99.90
34829;DHT22;21042;47.620;12.188;2023-12-20T05:57:23;1.20;99.90
34829;DHT22;21042;47.620;12.188;2023-12-20T05:59:50;1.20;99.90
34829;DHT22;21042;47.620;12.188;2023-12-20T06:02:17;1.20;99.90
34829;DHT22;21042;47.620;12.188;2023-12-20T06:04:43;1.30;99.90
34829;DHT22;21042;47.620;12.188;2023-12-20T06:07:14;1.30;99.90
34829;DHT22;21042;47.620;12.188;2023-12-20T06:09:41;1.40;99.90
34829;DHT22;21042;47.620;12.188;2023-12-20T06:12:08;1.40;99.90
34829;DHT22;21042;47.620;12.188;2023-12-20T06:14:35;1.40;99.90
34829;DHT22;21042;47.620;12.188;2023-12-20T06:17:02;1.40;99.90
34829;DHT22;21042;47.620;12.188;2023-12-20T06:19:29;1.40;99.90
34829;DHT22;21042;47.620;12.188;2023-12-20T06:21:56;1.40;99.90
34829;DHT22;21042;47.620;12.188;2023-12-20T06:24:23;1.40;99.90
34829;DHT22;21042;47.620;12.188;2023-12-20T06:26:54;1.40;99.90
34829;DHT22;21042;47.620;12.188;2023-12-20T06:29:23;1.40;99.90
34829;DHT22;21042;47.620;12.188;2023-12-20T06:31:50;1.40;99.90
34829;DHT22;21042;47.620;12.188;2023-12-20T06:34:17;1.40;99.90
34829;DHT22;21042;47.620;12.188;2023-12-20T06:36:44;1.50;99.90
34829;DHT22;21042;47.620;12.188;2023-12-20T06:39:11;1.50;99.90
34829;DHT22;21042;47.620;12.188;2023-12-20T06:41:39;1.50;99.90
34829;DHT22;21042;47.620;12.188;2023-12-20T06:44:06;1.50;99.90
34829;DHT22;21042;47.620;12.188;2023-12-20T06:46:33;1.50;99.90
34829;DHT22;21042;47.620;12.188;2023-12-20T06:49:00;1.40;99.90
34829;DHT22;21042;47.620;12.188;2023-12-20T06:51:27;1.30;99.90
34829;DHT22;21042;47.620;12.188;2023-12-20T06:53:54;1.30;99.90
34829;DHT22;21042;47.620;12.188;2023-12-20T06:56:21;1.30;99.90
34829;DHT22;21042;47.620;12.188;2023-12-20T06:58:47;1.40;99.90
34829;DHT22;21042;47.620;12.188;2023-12-20T07:01:15;1.40;99.90
34829;DHT22;21042;47.620;12.188;2023-12-20T07:03:42;1.30;99.90
34829;DHT22;21042;47.620;12.188;2023-12-20T07:06:09;1.30;99.90
34829;DHT22;21042;47.620;12.188;2023-12-20T07:08:36;1.30;99.90
34829;DHT22;21042;47.620;12.188;2023-12-20T07:11:03;1.30;99.90
34829;DHT22;21042;47.620;12.188;2023-12-20T07:13:30;1.40;99.90
34829;DHT22;21042;47.620;12.188;2023-12-20T07:15:57;1.50;99.90
34829;DHT22;21042;47.620;12.188;2023-12-20T07:18:24;1.40;99.90
34829;DHT22;21042;47.620;12.188;2023-12-20T07:20:51;1.50;99.90
34829;DHT22;21042;47.620;12.188;2023-12-20T07:23:18;1.50;99.90
34829;DHT22;21042;47.620;12.188;2023-12-20T07:25:46;1.60;99.90
34829;DHT22;21042;47.620;12.188;2023-12-20T07:28:13;1.60;99.90
34829;DHT22;21042;47.620;12.188;2023-12-20T07:30:40;1.70;99.90
34829;DHT22;21042;47.620;12.188;2023-12-20T07:33:07;1.70;99.90
34829;DHT22;21042;47.620;12.188;2023-12-20T07:35:36;1.70;99.90
34829;DHT22;21042;47.620;12.188;2023-12-20T07:38:03;1.70;99.90
34829;DHT22;21042;47.620;12.188;2023-12-20T07:40:30;1.70;99.90
34829;DHT22;21042;47.620;12.188;2023-12-20T07:42:57;1.70;99.90
34829;DHT22;21042;47.620;12.188;2023-12-20T07:45:24;1.70;99.90
34829;DHT22;21042;47.620;12.188;2023-12-20T07:47:51;1.80;99.90
34829;DHT22;21042;47.620;12.188;2023-12-20T07:50:18;1.80;99.90
34829;DHT22;21042;47.620;12.188;2023-12-20T07:52:45;1.80;99.90
34829;DHT22;21042;47.620;12.188;2023-12-20T07:55:12;1.90;99.90
34829;DHT22;21042;47.620;12.188;2023-12-20T07:57:39;2.00;99.90
34829;DHT22;21042;47.620;12.188;2023-12-20T08:00:06;2.00;99.90
34829;DHT22;21042;47.620;12.188;2023-12-20T08:02:33;2.00;99.90
34829;DHT22;21042;47.620;12.188;2023-12-20T08:04:59;2.00;99.90
34829;DHT22;21042;47.620;12.188;2023-12-20T08:07:26;2.00;99.90
34829;DHT22;21042;47.620;12.188;2023-12-20T08:09:53;2.00;99.90
34829;DHT22;21042;47.620;12.188;2023-12-20T08:12:21;2.00;99.90
34829;DHT22;21042;47.620;12.188;2023-12-20T08:14:48;2.00;99.90
34829;DHT22;21042;47.620;12.188;2023-12-20T08:17:15;1.90;99.90
34829;DHT22;21042;47.620;12.188;2023-12-20T08:19:42;1.80;99.90
34829;DHT22;21042;47.620;12.188;2023-12-20T08:22:09;1.70;99.90
34829;DHT22;21042;47.620;12.188;2023-12-20T08:24:36;1.80;99.90
34829;DHT22;21042;47.620;12.188;2023-12-20T08:27:04;1.80;99.90
34829;DHT22;21042;47.620;12.188;2023-12-20T08:29:31;1.80;99.90
34829;DHT22;21042;47.620;12.188;2023-12-20T08:31:58;1.90;99.90
34829;DHT22;21042;47.620;12.188;2023-12-20T08:34:26;2.00;99.90
34829;DHT22;21042;47.620;12.188;2023-12-20T08:36:53;2.00;99.90
34829;DHT22;21042;47.620;12.188;2023-12-20T08:39:20;2.10;99.90
34829;DHT22;21042;47.620;12.188;2023-12-20T08:41:47;2.10;99.90
34829;DHT22;21042;47.620;12.188;2023-12-20T08:44:13;2.10;99.90
34829;DHT22;21042;47.620;12.188;2023-12-20T08:46:40;2.20;99.90
34829;DHT22;21042;47.620;12.188;2023-12-20T08:49:07;2.20;99.90
34829;DHT22;21042;47.620;12.188;2023-12-20T08:51:36;2.20;99.90
34829;DHT22;21042;47.620;12.188;2023-12-20T08:54:02;2.20;99.90
34829;DHT22;21042;47.620;12.188;2023-12-20T08:56:34;2.20;99.90
34829;DHT22;21042;47.620;12.188;2023-12-20T08:59:01;2.20;99.90
34829;DHT22;21042;47.620;12.188;2023-12-20T09:01:28;2.10;99.90
34829;DHT22;21042;47.620;12.188;2023-12-20T09:03:55;2.10;99.90
34829;DHT22;21042;47.620;12.188;2023-12-20T09:06:22;2.10;99.90
34829;DHT22;21042;47.620;12.188;2023-12-20T09:08:48;2.00;99.90
34829;DHT22;21042;47.620;12.188;2023-12-20T09:11:15;2.10;99.90
34829;DHT22;21042;47.620;12.188;2023-12-20T09:13:44;2.10;99.90
34829;DHT22;21042;47.620;12.188;2023-12-20T09:16:11;2.00;99.90
34829;DHT22;21042;47.620;12.188;2023-12-20T09:18:39;2.10;99.90
34829;DHT22;21042;47.620;12.188;2023-12-20T09:21:06;2.20;99.90
34829;DHT22;21042;47.620;12.188;2023-12-20T09:23:33;2.20;99.90
34829;DHT22;21042;47.620;12.188;2023-12-20T09:26:00;2.20;99.90
34829;DHT22;21042;47.620;12.188;2023-12-20T09:28:26;2.30;99.90
34829;DHT22;21042;47.620;12.188;2023-12-20T09:30:53;2.30;99.90
34829;DHT22;21042;47.620;12.188;2023-12-20T09:33:20;2.40;99.90
34829;DHT22;21042;47.620;12.188;2023-12-20T09:35:47;2.50;99.90
34829;DHT22;21042;47.620;12.188;2023-12-20T09:38:14;2.50;99.90
34829;DHT22;21042;47.620;12.188;2023-12-20T09:40:42;2.50;99.90
34829;DHT22;21042;47.620;12.188;2023-12-20T09:43:13;2.60;99.90
34829;DHT22;21042;47.620;12.188;2023-12-20T09:45:42;2.70;99.90
34829;DHT22;21042;47.620;12.188;2023-12-20T09:48:13;2.80;99.90
34829;DHT22;21042;47.620;12.188;2023-12-20T09:50:41;2.90;99.90
34829;DHT22;21042;47.620;12.188;2023-12-20T09:53:15;2.90;99.90
34829;DHT22;21042;47.620;12.188;2023-12-20T09:55:43;2.90;99.90
34829;DHT22;21042;47.620;12.188;2023-12-20T09:58:10;2.90;99.90
34829;DHT22;21042;47.620;12.188;2023-12-20T10:00:37;2.90;99.90
34829;DHT22;21042;47.620;12.188;2023-12-20T10:03:06;2.90;99.90
34829;DHT22;21042;47.620;12.188;2023-12-20T10:05:34;2.90;99.90
34829;DHT22;21042;47.620;12.188;2023-12-20T10:08:01;2.90;99.90
34829;DHT22;21042;47.620;12.188;2023-12-20T10:10:30;3.00;99.90
34829;DHT22;21042;47.620;12.188;2023-12-20T10:13:12;3.00;99.90
34829;DHT22;21042;47.620;12.188;2023-12-20T10:15:40;3.00;99.90
34829;DHT22;21042;47.620;12.188;2023-12-20T10:18:08;3.10;99.90
34829;DHT22;21042;47.620;12.188;2023-12-20T10:20:35;3.10;99.90
34829;DHT22;21042;47.620;12.188;2023-12-20T10:23:02;3.00;99.90
34829;DHT22;21042;47.620;12.188;2023-12-20T10:25:31;3.00;99.90
34829;DHT22;21042;47.620;12.188;2023-12-20T10:28:32;3.00;99.90
34829;DHT22;21042;47.620;12.188;2023-12-20T10:31:01;3.00;99.90
34829;DHT22;21042;47.620;12.188;2023-12-20T10:33:30;3.00;99.90
34829;DHT22;21042;47.620;12.188;2023-12-20T10:35:59;3.00;99.90
34829;DHT22;21042;47.620;12.188;2023-12-20T10:38:26;3.00;99.90
34829;DHT22;21042;47.620;12.188;2023-12-20T10:40:57;3.10;99.90
34829;DHT22;21042;47.620;12.188;2023-12-20T10:43:26;3.10;99.90
34829;DHT22;21042;47.620;12.188;2023-12-20T10:45:54;3.20;99.90
34829;DHT22;21042;47.620;12.188;2023-12-20T10:48:21;3.10;99.90
34829;DHT22;21042;47.620;12.188;2023-12-20T10:50:55;3.20;99.90
34829;DHT22;21042;47.620;12.188;2023-12-20T10:53:24;3.20;99.90
34829;DHT22;21042;47.620;12.188;2023-12-20T10:55:53;3.20;99.90
34829;DHT22;21042;47.620;12.188;2023-12-20T10:58:22;3.10;99.90
34829;DHT22;21042;47.620;12.188;2023-12-20T11:00:54;3.10;99.90
34829;DHT22;21042;47.620;12.188;2023-12-20T11:03:23;3.10;99.90
34829;DHT22;21042;47.620;12.188;2023-12-20T11:06:33;3.10;99.90
34829;DHT22;21042;47.620;12.188;2023-12-20T11:12:36;3.30;99.90
34829;DHT22;21042;47.620;12.188;2023-12-20T11:14:54;3.30;99.90
34829;DHT22;21042;47.620;12.188;2023-12-20T11:17:24;3.40;99.90
34829;DHT22;21042;47.620;12.188;2023-12-20T11:22:29;3.60;99.90
34829;DHT22;21042;47.620;12.188;2023-12-20T11:25:10;3.70;99.90
34829;DHT22;21042;47.620;12.188;2023-12-20T11:27:42;3.70;99.90
34829;DHT22;21042;47.620;12.188;2023-12-20T11:30:15;3.70;99.90
34829;DHT22;21042;47.620;12.188;2023-12-20T11:32:42;3.80;99.90
34829;DHT22;21042;47.620;12.188;2023-12-20T11:37:38;3.90;99.90
34829;DHT22;21042;47.620;12.188;2023-12-20T11:40:17;4.10;99.90
34829;DHT22;21042;47.620;12.188;2023-12-20T11:42:48;4.20;99.90
34829;DHT22;21042;47.620;12.188;2023-12-20T11:45:17;4.30;99.90
34829;DHT22;21042;47.620;12.188;2023-12-20T11:47:47;4.40;99.90
34829;DHT22;21042;47.620;12.188;2023-12-20T11:50:21;4.50;99.90
34829;DHT22;21042;47.620;12.188;2023-12-20T11:52:49;4.60;99.90
34829;DHT22;21042;47.620;12.188;2023-12-20T11:55:16;4.60;99.90
34829;DHT22;21042;47.620;12.188;2023-12-20T11:57:43;4.60;99.90
34829;DHT22;21042;47.620;12.188;2023-12-20T12:00:13;4.60;99.90
34829;DHT22;21042;47.620;12.188;2023-12-20T12:02:40;4.60;99.90
34829;DHT22;21042;47.620;12.188;2023-12-20T12:05:07;4.60;99.90
34829;DHT22;21042;47.620;12.188;2023-12-20T12:07:35;4.60;99.90
34829;DHT22;21042;47.620;12.188;2023-12-20T12:10:02;4.60;99.90
34829;DHT22;21042;47.620;12.188;2023-12-20T12:12:30;4.60;99.90
34829;DHT22;21042;47.620;12.188;2023-12-20T12:14:57;4.60;99.90
34829;DHT22;21042;47.620;12.188;2023-12-20T12:17:24;4.60;99.90
34829;DHT22;21042;47.620;12.188;2023-12-20T12:20:02;4.60;99.90
34829;DHT22;21042;47.620;12.188;2023-12-20T12:22:30;4.50;99.90
34829;DHT22;21042;47.620;12.188;2023-12-20T12:24:59;4.50;99.90
34829;DHT22;21042;47.620;12.188;2023-12-20T12:27:35;4.50;99.90
34829;DHT22;21042;47.620;12.188;2023-12-20T12:30:03;4.60;99.90
34829;DHT22;21042;47.620;12.188;2023-12-20T12:32:31;4.70;99.90
34829;DHT22;21042;47.620;12.188;2023-12-20T12:34:59;4.80;99.90
34829;DHT22;21042;47.620;12.188;2023-12-20T12:37:26;4.90;99.90
34829;DHT22;21042;47.620;12.188;2023-12-20T12:39:53;4.90;99.90
34829;DHT22;21042;47.620;12.188;2023-12-20T12:42:21;4.90;99.90
34829;DHT22;21042;47.620;12.188;2023-12-20T12:44:52;5.00;99.90
34829;DHT22;21042;47.620;12.188;2023-12-20T12:47:19;5.10;99.90
34829;DHT22;21042;47.620;12.188;2023-12-20T12:49:45;5.20;99.90
34829;DHT22;21042;47.620;12.188;2023-12-20T12:52:12;5.30;99.90
34829;DHT22;21042;47.620;12.188;2023-12-20T12:54:39;5.40;99.90
34829;DHT22;21042;47.620;12.188;2023-12-20T12:57:06;5.50;99.90
34829;DHT22;21042;47.620;12.188;2023-12-20T12:59:33;5.50;99.90
34829;DHT22;21042;47.620;12.188;2023-12-20T13:02:03;5.60;99.90
34829;DHT22;21042;47.620;12.188;2023-12-20T13:04:30;5.70;99.90
34829;DHT22;21042;47.620;12.188;2023-12-20T13:06:58;5.80;99.90
34829;DHT22;21042;47.620;12.188;2023-12-20T13:09:25;5.80;99.90
34829;DHT22;21042;47.620;12.188;2023-12-20T13:11:51;5.90;99.90
34829;DHT22;21042;47.620;12.188;2023-12-20T13:14:18;5.90;99.90
34829;DHT22;21042;47.620;12.188;2023-12-20T13:16:45;5.90;99.90
34829;DHT22;21042;47.620;12.188;2023-12-20T13:19:12;5.90;99.90
34829;DHT22;21042;47.620;12.188;2023-12-20T13:21:40;6.00;99.90
34829;DHT22;21042;47.620;12.188;2023-12-20T13:24:07;6.00;99.90
34829;DHT22;21042;47.620;12.188;2023-12-20T13:26:34;6.10;99.90
34829;DHT22;21042;47.620;12.188;2023-12-20T13:29:00;6.20;99.90
34829;DHT22;21042;47.620;12.188;2023-12-20T13:31:27;6.40;99.90
34829;DHT22;21042;47.620;12.188;2023-12-20T13:33:55;6.40;99.90
34829;DHT22;21042;47.620;12.188;2023-12-20T13:36:22;6.50;99.90
34829;DHT22;21042;47.620;12.188;2023-12-20T13:38:50;6.60;99.90
34829;DHT22;21042;47.620;12.188;2023-12-20T13:41:17;6.60;99.90
34829;DHT22;21042;47.620;12.188;2023-12-20T13:43:43;6.70;99.90
34829;DHT22;21042;47.620;12.188;2023-12-20T13:46:10;6.70;99.90
34829;DHT22;21042;47.620;12.188;2023-12-20T13:48:37;6.80;99.90
34829;DHT22;21042;47.620;12.188;2023-12-20T13:51:04;6.80;99.90
34829;DHT22;21042;47.620;12.188;2023-12-20T13:53:31;6.90;99.90
34829;DHT22;21042;47.620;12.188;2023-12-20T13:55:58;6.80;99.90
34829;DHT22;21042;47.620;12.188;2023-12-20T13:58:26;6.70;99.90
34829;DHT22;21042;47.620;12.188;2023-12-20T14:00:53;6.60;99.90
34829;DHT22;21042;47.620;12.188;2023-12-20T14:03:20;6.50;99.90
34829;DHT22;21042;47.620;12.188;2023-12-20T14:05:47;6.40;99.90
34829;DHT22;21042;47.620;12.188;2023-12-20T14:08:14;6.30;99.90
34829;DHT22;21042;47.620;12.188;2023-12-20T14:10:41;6.20;99.90
34829;DHT22;21042;47.620;12.188;2023-12-20T14:13:08;6.20;99.90
34829;DHT22;21042;47.620;12.188;2023-12-20T14:15:34;6.10;99.90
34829;DHT22;21042;47.620;12.188;2023-12-20T14:18:07;6.10;99.90
34829;DHT22;21042;47.620;12.188;2023-12-20T14:20:35;6.10;99.90
34829;DHT22;21042;47.620;12.188;2023-12-20T14:23:02;6.00;99.90
34829;DHT22;21042;47.620;12.188;2023-12-20T14:25:29;6.00;99.90
34829;DHT22;21042;47.620;12.188;2023-12-20T14:28:11;5.90;99.90
34829;DHT22;21042;47.620;12.188;2023-12-20T14:30:40;5.90;99.90
34829;DHT22;21042;47.620;12.188;2023-12-20T14:33:07;5.90;99.90
34829;DHT22;21042;47.620;12.188;2023-12-20T14:35:34;5.80;99.90
34829;DHT22;21042;47.620;12.188;2023-12-20T14:38:01;5.80;99.90
34829;DHT22;21042;47.620;12.188;2023-12-20T14:40:28;5.80;99.90
34829;DHT22;21042;47.620;12.188;2023-12-20T14:42:54;5.70;99.90
34829;DHT22;21042;47.620;12.188;2023-12-20T14:45:21;5.70;99.90
34829;DHT22;21042;47.620;12.188;2023-12-20T14:47:48;5.60;99.90
34829;DHT22;21042;47.620;12.188;2023-12-20T14:50:16;5.60;99.90
34829;DHT22;21042;47.620;12.188;2023-12-20T14:52:45;5.50;99.90
34829;DHT22;21042;47.620;12.188;2023-12-20T14:55:12;5.50;99.90
34829;DHT22;21042;47.620;12.188;2023-12-20T14:57:39;5.50;99.90
34829;DHT22;21042;47.620;12.188;2023-12-20T15:00:07;5.50;99.90
34829;DHT22;21042;47.620;12.188;2023-12-20T15:02:34;5.40;99.90
34829;DHT22;21042;47.620;12.188;2023-12-20T15:05:01;5.40;99.90
34829;DHT22;21042;47.620;12.188;2023-12-20T15:07:28;5.40;99.90
34829;DHT22;21042;47.620;12.188;2023-12-20T15:09:55;5.40;99.90
34829;DHT22;21042;47.620;12.188;2023-12-20T15:12:23;5.40;99.90
34829;DHT22;21042;47.620;12.188;2023-12-20T15:14:50;5.40;99.90
34829;DHT22;21042;47.620;12.188;2023-12-20T15:17:16;5.40;99.90
34829;DHT22;21042;47.620;12.188;2023-12-20T15:19:43;5.30;99.90
34829;DHT22;21042;47.620;12.188;2023-12-20T15:22:10;5.30;99.90
34829;DHT22;21042;47.620;12.188;2023-12-20T15:24:37;5.30;99.90
34829;DHT22;21042;47.620;12.188;2023-12-20T15:27:06;5.30;99.90
34829;DHT22;21042;47.620;12.188;2023-12-20T15:29:34;5.40;99.90
34829;DHT22;21042;47.620;12.188;2023-12-20T15:32:00;5.30;99.90
34829;DHT22;21042;47.620;12.188;2023-12-20T15:34:27;5.30;99.90
34829;DHT22;21042;47.620;12.188;2023-12-20T15:36:54;5.30;99.90
34829;DHT22;21042;47.620;12.188;2023-12-20T15:39:22;5.20;99.90
34829;DHT22;21042;47.620;12.188;2023-12-20T15:41:49;5.20;99.90